createdAt,value
2018-07-04T00:08:06.848Z,14.20
2018-07-04T00:10:52.436Z,12.87
2018-07-04T03:16:36.964Z,17.30
2018-07-04T04:14:48.682Z,16.13
2018-07-04T06:36:25.581Z,11.23
2018-07-04T08:17:02.347Z,10.90
2018-07-04T08:55:06.735Z,12.37
2018-07-04T09:30:33.095Z,11.50
2018-07-04T09:49:17.464Z,9.50
2018-07-04T09:52:12.040Z,14.60
2018-07-04T10:08:03.807Z,12.33
2018-07-04T10:11:00.508Z,13.03
2018-07-04T10:19:39.156Z,15.43
2018-07-04T10:22:42.808Z,20.23
2018-07-04T10:52:14.334Z,21.07
2018-07-04T11:07:37.895Z,14.40
2018-07-04T11:10:27.755Z,14.30
2018-07-04T11:20:22.530Z,17.47
2018-07-04T11:46:12.784Z,13.53
2018-07-04T11:48:45.748Z,15.90
2018-07-04T11:51:17.231Z,13.17
2018-07-04T11:53:50.802Z,15.23
2018-07-04T11:59:18.055Z,22.70
2018-07-04T12:07:31.611Z,13.77
2018-07-04T12:10:01.764Z,14.67
2018-07-04T12:12:32.283Z,21.97
2018-07-04T12:15:05.384Z,15.80
2018-07-04T12:17:37.689Z,22.20
2018-07-04T12:20:10.269Z,22.87
2018-07-04T14:10:08.979Z,13.60
2018-07-04T14:13:09.035Z,8.90
2018-07-04T14:16:00.380Z,7.83
2018-07-04T14:18:50.257Z,8.67
2018-07-04T14:21:36.962Z,7.07
2018-07-04T16:10:35.423Z,7.53
2018-07-04T16:13:35.063Z,14.17
2018-07-04T16:16:22.063Z,13.33
2018-07-04T16:30:19.130Z,6.83
2018-07-04T16:33:08.799Z,5.87
2018-07-04T16:38:45.195Z,7.07
2018-07-04T17:01:19.946Z,8.65
2018-07-04T18:07:55.307Z,5.17
2018-07-04T18:11:05.239Z,6.00
2018-07-04T18:16:57.112Z,5.70
2018-07-04T19:01:22.840Z,6.43
2018-07-04T19:13:15.606Z,7.83
2018-07-04T20:17:07.162Z,6.77
2018-07-04T20:19:50.366Z,8.43
2018-07-04T20:22:32.680Z,8.17
2018-07-04T20:25:15.582Z,4.93
2018-07-04T20:27:58.230Z,6.53
2018-07-04T20:30:41.312Z,7.60
2018-07-04T20:33:23.822Z,7.10
2018-07-04T20:36:08.261Z,7.63
2018-07-04T20:39:01.930Z,5.97
2018-07-04T20:41:44.959Z,9.00
2018-07-04T20:44:29.046Z,6.73
2018-07-04T20:53:23.503Z,5.57
2018-07-04T20:56:07.962Z,6.10
2018-07-04T20:58:51.624Z,6.70
2018-07-04T21:01:35.760Z,8.35
2018-07-04T21:04:19.533Z,6.77
2018-07-04T21:07:04.318Z,7.70
2018-07-04T21:09:48.214Z,7.17
2018-07-04T21:12:31.461Z,5.63
2018-07-04T21:15:15.154Z,9.00
2018-07-04T21:17:58.308Z,6.37
2018-07-04T21:20:41.187Z,4.90
2018-07-04T21:23:24.340Z,6.53
2018-07-04T21:26:07.051Z,7.40
2018-07-04T21:28:49.342Z,7.33
2018-07-04T21:31:31.669Z,7.80
2018-07-04T21:34:14.046Z,6.37
2018-07-04T21:36:57.574Z,6.83
2018-07-04T21:39:41.230Z,6.37
2018-07-04T21:42:23.870Z,6.63
2018-07-04T21:45:06.295Z,7.90
2018-07-04T21:47:49.567Z,7.87
2018-07-04T21:50:38.648Z,7.30
2018-07-04T21:53:25.040Z,8.70
2018-07-04T21:56:09.871Z,7.23
2018-07-04T21:58:52.697Z,7.53
2018-07-04T22:01:50.249Z,6.60
2018-07-04T22:04:32.816Z,7.67
2018-07-04T22:07:20.695Z,7.07
2018-07-04T22:10:11.612Z,6.27
2018-07-04T22:34:42.648Z,9.20
2018-07-04T22:43:24.023Z,8.83
2018-07-04T22:46:07.760Z,8.23
2018-07-04T22:48:50.462Z,8.33
2018-07-04T22:51:37.087Z,7.47
2018-07-04T22:54:20.612Z,9.33
2018-07-04T22:57:03.555Z,6.93
2018-07-04T23:02:36.111Z,7.53
2018-07-04T23:05:19.130Z,7.93
2018-07-04T23:08:02.127Z,7.43
2018-07-04T23:10:44.845Z,7.27
2018-07-04T23:13:21.149Z,8.00
2018-07-04T23:16:05.351Z,7.03
2018-07-04T23:18:53.489Z,6.40
2018-07-04T23:21:41.443Z,7.67
2018-07-04T23:24:23.900Z,8.40
2018-07-04T23:27:10.638Z,8.07
2018-07-04T23:29:54.334Z,10.80
2018-07-04T23:32:44.044Z,7.40
2018-07-04T23:35:31.883Z,14.20
